Estación Meteorológica Peña el Pijo (Robertgarden) [ 11/24/17 15:32:23 CET ]

Fecha Hora Presion(HPa) Temp (°C) Humedad % Rocio (°C) Viento ( m/s) Direccion Lluvia 1Hora(mm) Lluvia 24H(mm) LLuvia Total(mm)
2017-May-09 01:11:07 1007.900 11.5 68 5.8         1390.83
2017-May-09 02:11:06 1007.500 10.4 72 5.6         1390.83
2017-May-09 03:02:38 1006.700 9.8 74 5.4         1390.83
2017-May-09 04:02:41 1006.000 9.5 76 5.4         1390.83
2017-May-09 05:01:50 1005.500 8.6 77 4.8         1390.83
2017-May-09 06:01:37 1005.000 8.3 78 4.7         1390.83
2017-May-09 07:01:38 1004.900 8.1 80 4.9         1390.83
2017-May-09 08:01:55 1004.900 8.7 82 5.8         1390.83
2017-May-09 09:01:42 1004.400 16.1 72 11.1         1390.83
2017-May-09 10:01:42 1003.700 22.1 49 10.9         1390.83
2017-May-09 11:01:46 1003.400 27.2 32 9.0         1390.83
2017-May-09 12:02:05 1003.000 29.1 27 8.0         1390.83
2017-May-09 13:01:35 1002.600 30.8 23 7.1         1390.83
2017-May-09 14:01:37 1001.700 29.6 22 5.5         1390.83
2017-May-09 15:01:56 1000.600 29.9 22 5.7         1390.83
2017-May-09 16:01:45 1000.600 25.9 32 7.9         1390.83
2017-May-09 17:01:47 999.700 26.1 34 8.9         1390.83
2017-May-09 18:01:48 999.700 24.1 35 7.6         1390.83
2017-May-09 19:01:40 999.600 24.9 31 6.6 3.5 WNW     1390.83
2017-May-09 20:01:51 999.700 22.9 34 6.1         1390.83
2017-May-09 21:01:48 1000.300 20.1 40 6.1         1390.83
2017-May-09 22:01:53 1001.100 17.9 48 6.7         1390.83
2017-May-09 23:01:44 1002.000 16.6 55 7.5         1390.83

Temperatura Máxima:30°    Temperatura Mínima:
Presión Máxima:1007.900 Hpa    Presión Mínima:999.600 Hpa


Volver